KERO2: Robert S. Kerr Lock & Dam & Reservoir (L&D 15)

Data processed at Thu Dec 07 2017 23:03


All information presented herein is the property of the government of the United States of America and may be revised or deleted at any time without prior notice.
Dissemination of this information without the expressed written consent of the Public Affairs Office, Tulsa District U.S. Army Corps of Engineers is strictly prohibited.
These data are gathered electronically and, as presented, have not undergone any form of quality control. These data are not guaranteed to be valid or correct.
Go to home page.
Go to station list.

Upstream stations:

Downstream station:
Previous Day
Next Day
Current Day
    
SHEF ID:       KERO2     Robert S. Kerr Lock & Dam
STATION TYPE:  NAVIGATION LOCK
Normal Pool:  Bottom =   458.00, Top =   460.00

               PRECIP ELEVATION   STORAGE   TW-ELEV    INFLOW   RELEASE  AIR-TEMP  WIND-DIRWIND-SPEED REL-HUMID SOLAR-RAD   VOLTAGE  BAT-LOAD
                   in        ft     ac-ft        ft       cfs       cfs         F       deg       mph         %      W/m2      volt      volt
              Ccp-Rev   Ccp-Rev   Ccp-Rev   Ccp-Rev  Regi-Rev  Regi-Rev   Ccp-Rev   Ccp-Rev   Ccp-Rev   Ccp-Rev   Ccp-Rev   Ccp-Rev   Ccp-Rev
(US/Central)
12/05 00:00      0.00    459.79    516639    412.13     12295      7720     52.66    297.20      9.14     40.49      0.00     13.86     13.48
12/05 01:00      0.00    459.80    517070    411.67       695         0     50.23    311.70      9.16     39.38      0.00     13.84     13.48
12/05 02:00      0.00    459.76    515346    411.97       998         0     48.04    304.70      6.53     40.91      0.00     13.84     13.36
12/05 03:00      0.00    459.79    516639    411.84       998         0     45.63    298.90      8.53     48.36      0.00     13.84     13.36
12/05 04:00      0.00    459.81    517501    411.75       998         0     44.40    298.60     11.46     49.40      0.00     13.84     13.36
12/05 05:00      0.00    459.81    517501    411.83       650         0     43.65    302.40      6.88     50.68      0.00     13.84     13.36
12/05 06:00      0.00    459.73    514053    412.36       303         0     42.66    310.40      9.34     51.41      0.00     13.86     13.36
12/05 07:00      0.00    459.73    514053    413.40     12978     22400     40.89    306.30      9.22     56.91      0.00     13.83     13.48
12/05 08:00      0.00    459.70    512760    413.40     15372     22400     39.58    308.60      9.03     54.41      9.00     13.84     13.36
12/05 09:00      0.00    459.80    517070    413.79     15605     22400     38.91    291.20     10.54     52.21     51.00     13.85     13.36
12/05 10:00      0.00    459.78    516208    413.39     15838     22400     39.69    295.70      9.63     49.04    169.00     13.85     13.48
12/05 11:00      0.00    459.82    517932    412.06     16071      6380     39.79    311.50      6.96     41.77    130.00     13.83     13.48
12/05 12:00      0.00    459.76    515346    411.55      9295      6380     40.35    304.40      9.92     38.29    129.00     13.85     13.36
12/05 13:00      0.00    459.75    514915    412.34      6901      6380     41.67    311.00      8.75     34.07    255.00     13.83     13.42
12/05 14:00      0.00    459.80    517070    412.31      6668      6380     42.87    322.90      7.70     28.40    336.00     13.84     13.36
12/05 15:00      0.00    459.80    517070    412.14      6716      6380     43.43    316.60      6.47     28.88    193.00     13.82     13.42
12/05 16:00      0.00    459.77    515777    412.13      7053      6380     43.21    297.70      4.85     30.47    212.00     13.82     13.36
12/05 17:00      0.00    459.78    516208    412.28      5270      6380     42.22    271.60      4.39     33.77     50.00     13.84     13.36
12/05 18:00      0.00    459.83    518363    412.29      9689      7000     40.46    283.90      4.31     36.82      1.00     13.82     13.42
12/05 19:00      0.00    459.81    517501    411.97     24291         0     39.60    297.20      5.63     40.67      0.00     13.84     13.36
12/05 20:00      0.00    459.84    518794    412.54     24214         0     39.25    292.50      4.51     43.42      0.00     13.82     13.42
12/05 21:00      0.00    459.98    524828    412.10     23849         0     38.26    293.20      2.17     60.03      0.00     13.83     13.36
12/05 22:00      0.00    459.99    525259    413.28     21122     10000     35.42     24.90      1.04     58.39      0.00     13.81     13.48
12/05 23:00      0.00    459.97    524397    413.02     18394     20000     41.02    220.90      3.14     51.18      0.00     13.81     13.36